sensor_id;sensor_type;location;lat;lon;timestamp;temperature;humidity
20182;DHT22;10250;50.756;6.172;2023-07-30T00:01:26;16.50;99.90
20182;DHT22;10250;50.756;6.172;2023-07-30T00:03:26;16.40;99.90
20182;DHT22;10250;50.756;6.172;2023-07-30T00:05:27;16.40;99.90
20182;DHT22;10250;50.756;6.172;2023-07-30T00:07:28;16.40;99.90
20182;DHT22;10250;50.756;6.172;2023-07-30T00:09:29;16.40;99.90
20182;DHT22;10250;50.756;6.172;2023-07-30T00:11:30;16.40;99.90
20182;DHT22;10250;50.756;6.172;2023-07-30T00:13:30;16.40;99.90
20182;DHT22;10250;50.756;6.172;2023-07-30T00:15:32;16.40;99.90
20182;DHT22;10250;50.756;6.172;2023-07-30T00:17:33;16.40;99.90
20182;DHT22;10250;50.756;6.172;2023-07-30T00:19:33;16.40;99.90
20182;DHT22;10250;50.756;6.172;2023-07-30T00:21:34;16.30;99.90
20182;DHT22;10250;50.756;6.172;2023-07-30T00:23:34;16.30;99.90
20182;DHT22;10250;50.756;6.172;2023-07-30T00:25:35;16.30;99.90
20182;DHT22;10250;50.756;6.172;2023-07-30T00:27:36;16.30;99.90
20182;DHT22;10250;50.756;6.172;2023-07-30T00:29:36;16.20;99.90
20182;DHT22;10250;50.756;6.172;2023-07-30T00:31:37;16.20;99.90
20182;DHT22;10250;50.756;6.172;2023-07-30T00:33:38;16.20;99.90
20182;DHT22;10250;50.756;6.172;2023-07-30T00:35:38;16.20;99.90
20182;DHT22;10250;50.756;6.172;2023-07-30T00:37:39;16.20;99.90
20182;DHT22;10250;50.756;6.172;2023-07-30T00:39:39;16.10;99.90
20182;DHT22;10250;50.756;6.172;2023-07-30T00:41:41;16.10;99.90
20182;DHT22;10250;50.756;6.172;2023-07-30T00:43:42;16.10;99.90
20182;DHT22;10250;50.756;6.172;2023-07-30T00:45:44;16.20;99.90
20182;DHT22;10250;50.756;6.172;2023-07-30T00:47:45;16.20;99.90
20182;DHT22;10250;50.756;6.172;2023-07-30T00:49:46;16.20;99.90
20182;DHT22;10250;50.756;6.172;2023-07-30T00:51:46;16.10;99.90
20182;DHT22;10250;50.756;6.172;2023-07-30T00:53:48;16.20;99.90
20182;DHT22;10250;50.756;6.172;2023-07-30T00:55:48;16.20;99.90
20182;DHT22;10250;50.756;6.172;2023-07-30T00:57:49;16.30;99.90
20182;DHT22;10250;50.756;6.172;2023-07-30T00:59:51;16.30;99.90
20182;DHT22;10250;50.756;6.172;2023-07-30T01:01:52;16.30;99.90
20182;DHT22;10250;50.756;6.172;2023-07-30T01:03:53;16.30;99.90
20182;DHT22;10250;50.756;6.172;2023-07-30T01:05:54;16.20;99.90
20182;DHT22;10250;50.756;6.172;2023-07-30T01:07:55;16.30;99.90
20182;DHT22;10250;50.756;6.172;2023-07-30T01:09:56;16.30;99.90
20182;DHT22;10250;50.756;6.172;2023-07-30T01:11:58;16.30;99.90
20182;DHT22;10250;50.756;6.172;2023-07-30T01:13:59;16.30;99.90
20182;DHT22;10250;50.756;6.172;2023-07-30T01:16:00;16.30;99.90
20182;DHT22;10250;50.756;6.172;2023-07-30T01:18:01;16.30;99.90
20182;DHT22;10250;50.756;6.172;2023-07-30T01:20:01;16.30;99.90
20182;DHT22;10250;50.756;6.172;2023-07-30T01:22:02;16.20;99.90
20182;DHT22;10250;50.756;6.172;2023-07-30T01:24:03;16.30;99.90
20182;DHT22;10250;50.756;6.172;2023-07-30T01:26:10;16.30;99.90
20182;DHT22;10250;50.756;6.172;2023-07-30T01:28:13;16.30;99.90
20182;DHT22;10250;50.756;6.172;2023-07-30T01:30:21;16.30;99.90
20182;DHT22;10250;50.756;6.172;2023-07-30T01:32:26;16.20;99.90
20182;DHT22;10250;50.756;6.172;2023-07-30T01:34:28;16.20;99.90
20182;DHT22;10250;50.756;6.172;2023-07-30T01:36:29;16.20;99.90
20182;DHT22;10250;50.756;6.172;2023-07-30T01:38:31;16.30;99.90
20182;DHT22;10250;50.756;6.172;2023-07-30T01:40:32;16.20;99.90
20182;DHT22;10250;50.756;6.172;2023-07-30T01:42:33;16.30;99.90
20182;DHT22;10250;50.756;6.172;2023-07-30T01:44:34;16.30;99.90
20182;DHT22;10250;50.756;6.172;2023-07-30T01:46:34;16.30;99.90
20182;DHT22;10250;50.756;6.172;2023-07-30T01:48:35;16.30;99.90
20182;DHT22;10250;50.756;6.172;2023-07-30T01:50:35;16.30;99.90
20182;DHT22;10250;50.756;6.172;2023-07-30T01:52:36;16.30;99.90
20182;DHT22;10250;50.756;6.172;2023-07-30T01:54:37;16.30;99.90
20182;DHT22;10250;50.756;6.172;2023-07-30T01:56:37;16.30;99.90
20182;DHT22;10250;50.756;6.172;2023-07-30T01:58:38;16.30;99.90
20182;DHT22;10250;50.756;6.172;2023-07-30T02:00:39;16.20;99.90
20182;DHT22;10250;50.756;6.172;2023-07-30T02:02:40;16.30;99.90
20182;DHT22;10250;50.756;6.172;2023-07-30T02:04:40;16.30;99.90
20182;DHT22;10250;50.756;6.172;2023-07-30T02:06:41;16.30;99.90
20182;DHT22;10250;50.756;6.172;2023-07-30T02:08:41;16.30;99.90
20182;DHT22;10250;50.756;6.172;2023-07-30T02:10:42;16.40;99.90
20182;DHT22;10250;50.756;6.172;2023-07-30T02:12:43;16.30;99.90
20182;DHT22;10250;50.756;6.172;2023-07-30T02:14:43;16.30;99.90
20182;DHT22;10250;50.756;6.172;2023-07-30T02:16:44;16.20;99.90
20182;DHT22;10250;50.756;6.172;2023-07-30T02:18:45;16.20;99.90
20182;DHT22;10250;50.756;6.172;2023-07-30T02:20:45;16.20;99.90
20182;DHT22;10250;50.756;6.172;2023-07-30T02:22:46;16.20;99.90
20182;DHT22;10250;50.756;6.172;2023-07-30T02:24:47;16.20;99.90
20182;DHT22;10250;50.756;6.172;2023-07-30T02:26:47;16.20;99.90
20182;DHT22;10250;50.756;6.172;2023-07-30T02:28:49;16.20;99.90
20182;DHT22;10250;50.756;6.172;2023-07-30T02:30:49;16.20;99.90
20182;DHT22;10250;50.756;6.172;2023-07-30T02:32:50;16.20;99.90
20182;DHT22;10250;50.756;6.172;2023-07-30T02:34:50;16.20;99.90
20182;DHT22;10250;50.756;6.172;2023-07-30T02:36:51;16.20;99.90
20182;DHT22;10250;50.756;6.172;2023-07-30T02:38:51;16.20;99.90
20182;DHT22;10250;50.756;6.172;2023-07-30T02:40:52;16.20;99.90
20182;DHT22;10250;50.756;6.172;2023-07-30T02:42:53;16.20;99.90
20182;DHT22;10250;50.756;6.172;2023-07-30T02:44:53;16.20;99.90
20182;DHT22;10250;50.756;6.172;2023-07-30T02:46:54;16.20;99.90
20182;DHT22;10250;50.756;6.172;2023-07-30T02:48:55;16.20;99.90
20182;DHT22;10250;50.756;6.172;2023-07-30T02:50:55;16.20;99.90
20182;DHT22;10250;50.756;6.172;2023-07-30T02:52:56;16.20;99.90
20182;DHT22;10250;50.756;6.172;2023-07-30T02:54:56;16.10;99.90
20182;DHT22;10250;50.756;6.172;2023-07-30T02:56:57;16.10;99.90
20182;DHT22;10250;50.756;6.172;2023-07-30T02:58:59;16.10;99.90
20182;DHT22;10250;50.756;6.172;2023-07-30T03:01:06;16.10;99.90
20182;DHT22;10250;50.756;6.172;2023-07-30T03:03:07;16.10;99.90
20182;DHT22;10250;50.756;6.172;2023-07-30T03:05:08;16.10;99.90
20182;DHT22;10250;50.756;6.172;2023-07-30T03:07:09;16.00;99.90
20182;DHT22;10250;50.756;6.172;2023-07-30T03:09:10;16.10;99.90
20182;DHT22;10250;50.756;6.172;2023-07-30T03:11:10;16.00;99.90
20182;DHT22;10250;50.756;6.172;2023-07-30T03:13:11;15.90;99.90
20182;DHT22;10250;50.756;6.172;2023-07-30T03:15:11;16.00;99.90
20182;DHT22;10250;50.756;6.172;2023-07-30T03:17:12;15.90;99.90
20182;DHT22;10250;50.756;6.172;2023-07-30T03:19:13;16.00;99.90
20182;DHT22;10250;50.756;6.172;2023-07-30T03:21:14;16.00;99.90
20182;DHT22;10250;50.756;6.172;2023-07-30T03:23:14;15.90;99.90
20182;DHT22;10250;50.756;6.172;2023-07-30T03:25:15;15.90;99.90
20182;DHT22;10250;50.756;6.172;2023-07-30T03:27:16;15.90;99.90
20182;DHT22;10250;50.756;6.172;2023-07-30T03:29:16;15.90;99.90
20182;DHT22;10250;50.756;6.172;2023-07-30T03:31:17;15.80;99.90
20182;DHT22;10250;50.756;6.172;2023-07-30T03:33:17;15.80;99.90
20182;DHT22;10250;50.756;6.172;2023-07-30T03:35:18;15.80;99.90
20182;DHT22;10250;50.756;6.172;2023-07-30T03:37:19;15.80;99.90
20182;DHT22;10250;50.756;6.172;2023-07-30T03:39:19;15.80;99.90
20182;DHT22;10250;50.756;6.172;2023-07-30T03:41:20;15.80;99.90
20182;DHT22;10250;50.756;6.172;2023-07-30T03:43:21;15.70;99.90
20182;DHT22;10250;50.756;6.172;2023-07-30T03:45:21;15.80;99.90
20182;DHT22;10250;50.756;6.172;2023-07-30T03:47:22;15.70;99.90
20182;DHT22;10250;50.756;6.172;2023-07-30T03:49:23;15.80;99.90
20182;DHT22;10250;50.756;6.172;2023-07-30T03:51:23;15.80;99.90
20182;DHT22;10250;50.756;6.172;2023-07-30T03:53:24;15.70;99.90
20182;DHT22;10250;50.756;6.172;2023-07-30T03:55:25;15.80;99.90
20182;DHT22;10250;50.756;6.172;2023-07-30T03:57:26;15.70;99.90
20182;DHT22;10250;50.756;6.172;2023-07-30T03:59:26;15.70;99.90
20182;DHT22;10250;50.756;6.172;2023-07-30T04:01:28;15.70;99.90
20182;DHT22;10250;50.756;6.172;2023-07-30T04:03:30;15.70;99.90
20182;DHT22;10250;50.756;6.172;2023-07-30T04:05:31;15.80;99.90
20182;DHT22;10250;50.756;6.172;2023-07-30T04:07:32;15.80;99.90
20182;DHT22;10250;50.756;6.172;2023-07-30T04:09:32;15.70;99.90
20182;DHT22;10250;50.756;6.172;2023-07-30T04:11:33;15.70;99.90
20182;DHT22;10250;50.756;6.172;2023-07-30T04:13:34;15.70;99.90
20182;DHT22;10250;50.756;6.172;2023-07-30T04:15:34;15.70;99.90
20182;DHT22;10250;50.756;6.172;2023-07-30T04:17:36;15.70;99.90
20182;DHT22;10250;50.756;6.172;2023-07-30T04:19:37;15.70;99.90
20182;DHT22;10250;50.756;6.172;2023-07-30T04:21:38;15.70;99.90
20182;DHT22;10250;50.756;6.172;2023-07-30T04:23:38;15.70;99.90
20182;DHT22;10250;50.756;6.172;2023-07-30T04:25:39;15.60;99.90
20182;DHT22;10250;50.756;6.172;2023-07-30T04:27:39;15.60;99.90
20182;DHT22;10250;50.756;6.172;2023-07-30T04:29:40;15.60;99.90
20182;DHT22;10250;50.756;6.172;2023-07-30T04:31:41;15.50;99.90
20182;DHT22;10250;50.756;6.172;2023-07-30T04:33:41;15.50;99.90
20182;DHT22;10250;50.756;6.172;2023-07-30T04:35:42;15.50;99.90
20182;DHT22;10250;50.756;6.172;2023-07-30T04:37:43;15.60;99.90
20182;DHT22;10250;50.756;6.172;2023-07-30T04:39:43;15.60;99.90
20182;DHT22;10250;50.756;6.172;2023-07-30T04:41:44;15.60;99.90
20182;DHT22;10250;50.756;6.172;2023-07-30T04:43:44;15.60;99.90
20182;DHT22;10250;50.756;6.172;2023-07-30T04:45:45;15.60;99.90
20182;DHT22;10250;50.756;6.172;2023-07-30T04:47:46;15.60;99.90
20182;DHT22;10250;50.756;6.172;2023-07-30T04:49:46;15.60;99.90
20182;DHT22;10250;50.756;6.172;2023-07-30T04:51:47;15.60;99.90
20182;DHT22;10250;50.756;6.172;2023-07-30T04:53:47;15.50;99.90
20182;DHT22;10250;50.756;6.172;2023-07-30T04:55:48;15.50;99.90
20182;DHT22;10250;50.756;6.172;2023-07-30T04:57:49;15.50;99.90
20182;DHT22;10250;50.756;6.172;2023-07-30T04:59:49;15.50;99.90
20182;DHT22;10250;50.756;6.172;2023-07-30T05:01:50;15.50;99.90
20182;DHT22;10250;50.756;6.172;2023-07-30T05:03:50;15.40;99.90
20182;DHT22;10250;50.756;6.172;2023-07-30T05:05:51;15.30;99.90
20182;DHT22;10250;50.756;6.172;2023-07-30T05:07:52;15.20;99.90
20182;DHT22;10250;50.756;6.172;2023-07-30T05:09:53;15.20;99.90
20182;DHT22;10250;50.756;6.172;2023-07-30T05:11:53;15.20;99.90
20182;DHT22;10250;50.756;6.172;2023-07-30T05:13:54;15.20;99.90
20182;DHT22;10250;50.756;6.172;2023-07-30T05:15:54;15.30;99.90
20182;DHT22;10250;50.756;6.172;2023-07-30T05:17:55;15.30;99.90
20182;DHT22;10250;50.756;6.172;2023-07-30T05:19:56;15.20;99.90
20182;DHT22;10250;50.756;6.172;2023-07-30T05:21:56;15.20;99.90
20182;DHT22;10250;50.756;6.172;2023-07-30T05:23:57;15.20;99.90
20182;DHT22;10250;50.756;6.172;2023-07-30T05:25:57;15.30;99.90
20182;DHT22;10250;50.756;6.172;2023-07-30T05:27:58;15.30;99.90
20182;DHT22;10250;50.756;6.172;2023-07-30T05:29:59;15.30;99.90
20182;DHT22;10250;50.756;6.172;2023-07-30T05:31:59;15.20;99.90
20182;DHT22;10250;50.756;6.172;2023-07-30T05:34:00;15.10;99.90
20182;DHT22;10250;50.756;6.172;2023-07-30T05:36:01;15.10;99.90
20182;DHT22;10250;50.756;6.172;2023-07-30T05:38:01;15.20;99.90
20182;DHT22;10250;50.756;6.172;2023-07-30T05:40:02;15.20;99.90
20182;DHT22;10250;50.756;6.172;2023-07-30T05:42:03;15.10;99.90
20182;DHT22;10250;50.756;6.172;2023-07-30T05:44:04;15.10;99.90
20182;DHT22;10250;50.756;6.172;2023-07-30T05:46:04;15.20;99.90
20182;DHT22;10250;50.756;6.172;2023-07-30T05:48:05;15.20;99.90
20182;DHT22;10250;50.756;6.172;2023-07-30T05:50:09;15.10;99.90
20182;DHT22;10250;50.756;6.172;2023-07-30T05:52:09;15.20;99.90
20182;DHT22;10250;50.756;6.172;2023-07-30T05:54:10;15.20;99.90
20182;DHT22;10250;50.756;6.172;2023-07-30T05:56:11;15.20;99.90
20182;DHT22;10250;50.756;6.172;2023-07-30T05:58:14;15.20;99.90
20182;DHT22;10250;50.756;6.172;2023-07-30T06:00:14;15.10;99.90
20182;DHT22;10250;50.756;6.172;2023-07-30T06:02:15;15.20;99.90
20182;DHT22;10250;50.756;6.172;2023-07-30T06:04:15;15.20;99.90
20182;DHT22;10250;50.756;6.172;2023-07-30T06:06:16;15.20;99.90
20182;DHT22;10250;50.756;6.172;2023-07-30T06:08:17;15.30;99.90
20182;DHT22;10250;50.756;6.172;2023-07-30T06:10:18;15.30;99.90
20182;DHT22;10250;50.756;6.172;2023-07-30T06:12:18;15.40;99.90
20182;DHT22;10250;50.756;6.172;2023-07-30T06:14:19;15.30;99.90
20182;DHT22;10250;50.756;6.172;2023-07-30T06:16:20;15.40;99.90
20182;DHT22;10250;50.756;6.172;2023-07-30T06:18:21;15.30;99.90
20182;DHT22;10250;50.756;6.172;2023-07-30T06:20:22;15.30;99.90
20182;DHT22;10250;50.756;6.172;2023-07-30T06:22:22;15.30;99.90
20182;DHT22;10250;50.756;6.172;2023-07-30T06:24:23;15.40;99.90
20182;DHT22;10250;50.756;6.172;2023-07-30T06:26:23;15.30;99.90
20182;DHT22;10250;50.756;6.172;2023-07-30T06:28:24;15.30;99.90
20182;DHT22;10250;50.756;6.172;2023-07-30T06:30:25;15.40;99.90
20182;DHT22;10250;50.756;6.172;2023-07-30T06:32:25;15.30;99.90
20182;DHT22;10250;50.756;6.172;2023-07-30T06:34:26;15.30;99.90
20182;DHT22;10250;50.756;6.172;2023-07-30T06:36:27;15.30;99.90
20182;DHT22;10250;50.756;6.172;2023-07-30T06:38:27;15.30;99.90
20182;DHT22;10250;50.756;6.172;2023-07-30T06:40:28;15.40;99.90
20182;DHT22;10250;50.756;6.172;2023-07-30T06:42:29;15.30;99.90
20182;DHT22;10250;50.756;6.172;2023-07-30T06:44:29;15.30;99.90
20182;DHT22;10250;50.756;6.172;2023-07-30T06:46:30;15.20;99.90
20182;DHT22;10250;50.756;6.172;2023-07-30T06:48:31;15.20;99.90
20182;DHT22;10250;50.756;6.172;2023-07-30T06:50:31;15.30;99.90
20182;DHT22;10250;50.756;6.172;2023-07-30T06:52:32;15.30;99.90
20182;DHT22;10250;50.756;6.172;2023-07-30T06:54:32;15.30;99.90
20182;DHT22;10250;50.756;6.172;2023-07-30T06:56:33;15.30;99.90
20182;DHT22;10250;50.756;6.172;2023-07-30T06:58:34;15.30;99.90
20182;DHT22;10250;50.756;6.172;2023-07-30T07:00:34;15.40;99.90
20182;DHT22;10250;50.756;6.172;2023-07-30T07:02:35;15.30;99.90
20182;DHT22;10250;50.756;6.172;2023-07-30T07:04:36;15.40;99.90
20182;DHT22;10250;50.756;6.172;2023-07-30T07:06:37;15.50;99.90
20182;DHT22;10250;50.756;6.172;2023-07-30T07:08:38;15.40;99.90
20182;DHT22;10250;50.756;6.172;2023-07-30T07:10:38;15.50;99.90
20182;DHT22;10250;50.756;6.172;2023-07-30T07:12:39;15.50;99.90
20182;DHT22;10250;50.756;6.172;2023-07-30T07:14:40;15.50;99.90
20182;DHT22;10250;50.756;6.172;2023-07-30T07:16:42;15.60;99.90
20182;DHT22;10250;50.756;6.172;2023-07-30T07:18:43;15.70;99.90
20182;DHT22;10250;50.756;6.172;2023-07-30T07:20:44;15.70;99.90
20182;DHT22;10250;50.756;6.172;2023-07-30T07:22:44;15.70;99.90
20182;DHT22;10250;50.756;6.172;2023-07-30T07:24:45;15.80;99.90
20182;DHT22;10250;50.756;6.172;2023-07-30T07:26:45;15.80;99.90
20182;DHT22;10250;50.756;6.172;2023-07-30T07:28:46;15.80;99.90
20182;DHT22;10250;50.756;6.172;2023-07-30T07:30:47;15.80;99.90
20182;DHT22;10250;50.756;6.172;2023-07-30T07:32:48;15.90;99.90
20182;DHT22;10250;50.756;6.172;2023-07-30T07:34:51;16.00;99.90
20182;DHT22;10250;50.756;6.172;2023-07-30T07:36:52;16.10;99.90
20182;DHT22;10250;50.756;6.172;2023-07-30T07:38:53;16.10;99.90
20182;DHT22;10250;50.756;6.172;2023-07-30T07:40:53;16.10;99.90
20182;DHT22;10250;50.756;6.172;2023-07-30T07:42:55;16.10;99.90
20182;DHT22;10250;50.756;6.172;2023-07-30T07:44:56;16.10;99.90
20182;DHT22;10250;50.756;6.172;2023-07-30T07:46:56;16.10;99.90
20182;DHT22;10250;50.756;6.172;2023-07-30T07:48:57;16.20;99.90
20182;DHT22;10250;50.756;6.172;2023-07-30T07:50:58;16.20;99.90
20182;DHT22;10250;50.756;6.172;2023-07-30T07:52:58;16.30;99.90
20182;DHT22;10250;50.756;6.172;2023-07-30T07:54:59;16.30;99.90
20182;DHT22;10250;50.756;6.172;2023-07-30T07:56:59;16.40;99.90
20182;DHT22;10250;50.756;6.172;2023-07-30T07:59:00;16.30;99.90
20182;DHT22;10250;50.756;6.172;2023-07-30T08:01:01;16.40;99.90
20182;DHT22;10250;50.756;6.172;2023-07-30T08:03:01;16.30;99.90
20182;DHT22;10250;50.756;6.172;2023-07-30T08:05:02;16.30;99.90
20182;DHT22;10250;50.756;6.172;2023-07-30T08:07:04;16.30;99.90
20182;DHT22;10250;50.756;6.172;2023-07-30T08:09:04;16.30;99.90
20182;DHT22;10250;50.756;6.172;2023-07-30T08:11:08;16.30;99.90
20182;DHT22;10250;50.756;6.172;2023-07-30T08:13:10;16.40;99.90
20182;DHT22;10250;50.756;6.172;2023-07-30T08:15:11;16.50;99.90
20182;DHT22;10250;50.756;6.172;2023-07-30T08:17:11;16.50;99.90
20182;DHT22;10250;50.756;6.172;2023-07-30T08:19:12;16.50;99.90
20182;DHT22;10250;50.756;6.172;2023-07-30T08:21:13;16.70;99.90
20182;DHT22;10250;50.756;6.172;2023-07-30T08:23:13;16.80;99.90
20182;DHT22;10250;50.756;6.172;2023-07-30T08:25:14;16.70;99.90
20182;DHT22;10250;50.756;6.172;2023-07-30T08:27:15;16.70;99.90
20182;DHT22;10250;50.756;6.172;2023-07-30T08:29:15;16.90;99.90
20182;DHT22;10250;50.756;6.172;2023-07-30T08:31:16;17.00;99.90
20182;DHT22;10250;50.756;6.172;2023-07-30T08:33:17;17.10;99.90
20182;DHT22;10250;50.756;6.172;2023-07-30T08:35:17;17.00;99.90
20182;DHT22;10250;50.756;6.172;2023-07-30T08:37:18;17.10;99.90
20182;DHT22;10250;50.756;6.172;2023-07-30T08:39:19;17.10;99.90
20182;DHT22;10250;50.756;6.172;2023-07-30T08:41:19;17.00;99.90
20182;DHT22;10250;50.756;6.172;2023-07-30T08:43:20;17.00;99.90
20182;DHT22;10250;50.756;6.172;2023-07-30T08:45:21;16.90;99.90
20182;DHT22;10250;50.756;6.172;2023-07-30T08:47:21;16.90;99.90
20182;DHT22;10250;50.756;6.172;2023-07-30T08:49:22;16.90;99.90
20182;DHT22;10250;50.756;6.172;2023-07-30T08:51:23;16.90;99.90
20182;DHT22;10250;50.756;6.172;2023-07-30T08:53:25;16.90;99.90
20182;DHT22;10250;50.756;6.172;2023-07-30T08:55:28;16.90;99.90
20182;DHT22;10250;50.756;6.172;2023-07-30T08:57:30;16.80;99.90
20182;DHT22;10250;50.756;6.172;2023-07-30T08:59:36;16.80;99.90
20182;DHT22;10250;50.756;6.172;2023-07-30T09:01:39;16.70;99.90
20182;DHT22;10250;50.756;6.172;2023-07-30T09:03:41;16.90;99.90
20182;DHT22;10250;50.756;6.172;2023-07-30T09:05:41;17.00;99.90
20182;DHT22;10250;50.756;6.172;2023-07-30T09:07:42;17.20;99.90
20182;DHT22;10250;50.756;6.172;2023-07-30T09:09:43;17.20;99.90
20182;DHT22;10250;50.756;6.172;2023-07-30T09:11:51;17.40;99.90
20182;DHT22;10250;50.756;6.172;2023-07-30T09:13:53;17.50;99.90
20182;DHT22;10250;50.756;6.172;2023-07-30T09:15:55;17.60;99.90
20182;DHT22;10250;50.756;6.172;2023-07-30T09:17:55;17.70;99.90
20182;DHT22;10250;50.756;6.172;2023-07-30T09:19:59;17.70;99.90
20182;DHT22;10250;50.756;6.172;2023-07-30T09:21:59;17.70;99.90
20182;DHT22;10250;50.756;6.172;2023-07-30T09:24:03;17.70;99.90
20182;DHT22;10250;50.756;6.172;2023-07-30T09:26:07;17.90;99.90
20182;DHT22;10250;50.756;6.172;2023-07-30T09:28:10;18.00;99.90
20182;DHT22;10250;50.756;6.172;2023-07-30T09:30:11;18.30;99.90
20182;DHT22;10250;50.756;6.172;2023-07-30T09:32:12;18.20;99.90
20182;DHT22;10250;50.756;6.172;2023-07-30T09:34:15;18.10;99.90
20182;DHT22;10250;50.756;6.172;2023-07-30T09:36:19;18.20;99.90
20182;DHT22;10250;50.756;6.172;2023-07-30T09:38:19;18.20;99.90
20182;DHT22;10250;50.756;6.172;2023-07-30T09:40:20;18.10;99.90
20182;DHT22;10250;50.756;6.172;2023-07-30T09:42:26;18.20;99.90
20182;DHT22;10250;50.756;6.172;2023-07-30T09:44:27;18.50;99.90
20182;DHT22;10250;50.756;6.172;2023-07-30T09:46:29;18.60;99.90
20182;DHT22;10250;50.756;6.172;2023-07-30T09:48:34;18.80;99.90
20182;DHT22;10250;50.756;6.172;2023-07-30T09:50:36;18.80;99.90
20182;DHT22;10250;50.756;6.172;2023-07-30T09:52:38;18.90;99.90
20182;DHT22;10250;50.756;6.172;2023-07-30T09:56:46;19.40;99.90
20182;DHT22;10250;50.756;6.172;2023-07-30T09:58:47;19.60;99.90
20182;DHT22;10250;50.756;6.172;2023-07-30T10:00:48;19.70;99.90
20182;DHT22;10250;50.756;6.172;2023-07-30T10:02:50;19.70;99.90
20182;DHT22;10250;50.756;6.172;2023-07-30T10:04:53;19.60;99.90
20182;DHT22;10250;50.756;6.172;2023-07-30T10:07:02;19.60;99.90
20182;DHT22;10250;50.756;6.172;2023-07-30T10:09:04;19.40;99.90
20182;DHT22;10250;50.756;6.172;2023-07-30T10:11:07;19.60;99.90
20182;DHT22;10250;50.756;6.172;2023-07-30T10:13:10;19.70;99.90
20182;DHT22;10250;50.756;6.172;2023-07-30T10:15:12;19.80;99.90
20182;DHT22;10250;50.756;6.172;2023-07-30T10:17:13;19.60;99.90
20182;DHT22;10250;50.756;6.172;2023-07-30T10:19:15;19.60;99.90
20182;DHT22;10250;50.756;6.172;2023-07-30T10:21:23;19.70;99.90
20182;DHT22;10250;50.756;6.172;2023-07-30T10:23:27;19.80;99.90
20182;DHT22;10250;50.756;6.172;2023-07-30T10:27:44;19.80;99.90
20182;DHT22;10250;50.756;6.172;2023-07-30T10:29:49;20.00;99.90
20182;DHT22;10250;50.756;6.172;2023-07-30T10:32:08;20.00;99.90
20182;DHT22;10250;50.756;6.172;2023-07-30T10:34:10;20.00;99.90
20182;DHT22;10250;50.756;6.172;2023-07-30T10:36:11;19.70;99.90
20182;DHT22;10250;50.756;6.172;2023-07-30T10:38:16;19.70;99.90
20182;DHT22;10250;50.756;6.172;2023-07-30T10:40:17;19.70;99.90
20182;DHT22;10250;50.756;6.172;2023-07-30T10:42:33;19.70;99.90
20182;DHT22;10250;50.756;6.172;2023-07-30T10:44:35;19.90;99.90
20182;DHT22;10250;50.756;6.172;2023-07-30T10:46:35;19.80;99.90
20182;DHT22;10250;50.756;6.172;2023-07-30T10:48:41;19.80;99.90
20182;DHT22;10250;50.756;6.172;2023-07-30T10:50:41;19.70;99.90
20182;DHT22;10250;50.756;6.172;2023-07-30T10:52:48;19.70;99.90
20182;DHT22;10250;50.756;6.172;2023-07-30T10:54:49;19.80;99.90
20182;DHT22;10250;50.756;6.172;2023-07-30T10:56:59;19.80;99.90
20182;DHT22;10250;50.756;6.172;2023-07-30T10:59:04;19.80;99.90
20182;DHT22;10250;50.756;6.172;2023-07-30T11:01:07;19.60;99.90
20182;DHT22;10250;50.756;6.172;2023-07-30T11:03:08;19.40;99.90
20182;DHT22;10250;50.756;6.172;2023-07-30T11:05:13;19.40;99.90
20182;DHT22;10250;50.756;6.172;2023-07-30T11:07:17;19.40;99.90
20182;DHT22;10250;50.756;6.172;2023-07-30T11:09:23;19.20;99.90
20182;DHT22;10250;50.756;6.172;2023-07-30T11:11:24;19.30;99.90
20182;DHT22;10250;50.756;6.172;2023-07-30T11:13:25;19.50;99.90
20182;DHT22;10250;50.756;6.172;2023-07-30T11:15:32;19.60;99.90
20182;DHT22;10250;50.756;6.172;2023-07-30T11:17:33;19.70;99.90
20182;DHT22;10250;50.756;6.172;2023-07-30T11:19:34;19.60;99.90
20182;DHT22;10250;50.756;6.172;2023-07-30T11:21:34;19.60;99.90
20182;DHT22;10250;50.756;6.172;2023-07-30T11:23:40;19.70;99.90
20182;DHT22;10250;50.756;6.172;2023-07-30T11:25:50;19.60;99.90
20182;DHT22;10250;50.756;6.172;2023-07-30T11:28:00;19.50;99.90
20182;DHT22;10250;50.756;6.172;2023-07-30T11:30:01;19.30;99.90
20182;DHT22;10250;50.756;6.172;2023-07-30T11:32:03;19.20;99.90
20182;DHT22;10250;50.756;6.172;2023-07-30T11:34:04;19.00;99.90
20182;DHT22;10250;50.756;6.172;2023-07-30T11:36:07;19.00;99.90
20182;DHT22;10250;50.756;6.172;2023-07-30T11:38:08;19.20;99.90
20182;DHT22;10250;50.756;6.172;2023-07-30T11:40:09;19.20;99.90
20182;DHT22;10250;50.756;6.172;2023-07-30T11:42:10;19.10;99.90
20182;DHT22;10250;50.756;6.172;2023-07-30T11:44:32;19.00;99.90
20182;DHT22;10250;50.756;6.172;2023-07-30T11:46:33;19.00;99.90
20182;DHT22;10250;50.756;6.172;2023-07-30T11:48:36;19.00;99.90
20182;DHT22;10250;50.756;6.172;2023-07-30T11:51:03;19.10;99.90
20182;DHT22;10250;50.756;6.172;2023-07-30T11:53:04;19.20;99.90
20182;DHT22;10250;50.756;6.172;2023-07-30T11:55:05;19.30;99.90
20182;DHT22;10250;50.756;6.172;2023-07-30T11:57:05;19.30;99.90
20182;DHT22;10250;50.756;6.172;2023-07-30T11:59:07;19.30;99.90
20182;DHT22;10250;50.756;6.172;2023-07-30T12:01:07;19.20;99.90
20182;DHT22;10250;50.756;6.172;2023-07-30T12:03:10;19.20;99.90
20182;DHT22;10250;50.756;6.172;2023-07-30T12:05:16;19.10;99.90
20182;DHT22;10250;50.756;6.172;2023-07-30T12:07:25;18.90;99.90
20182;DHT22;10250;50.756;6.172;2023-07-30T12:09:25;18.90;99.90
20182;DHT22;10250;50.756;6.172;2023-07-30T12:11:26;19.10;99.90
20182;DHT22;10250;50.756;6.172;2023-07-30T12:13:27;19.30;99.90
20182;DHT22;10250;50.756;6.172;2023-07-30T12:15:29;19.40;99.90
20182;DHT22;10250;50.756;6.172;2023-07-30T12:17:29;19.80;99.90
20182;DHT22;10250;50.756;6.172;2023-07-30T12:19:30;19.80;99.90
20182;DHT22;10250;50.756;6.172;2023-07-30T12:21:31;19.70;99.90
20182;DHT22;10250;50.756;6.172;2023-07-30T12:23:31;19.50;99.90
20182;DHT22;10250;50.756;6.172;2023-07-30T12:25:32;19.60;99.90
20182;DHT22;10250;50.756;6.172;2023-07-30T12:27:32;19.40;99.90
20182;DHT22;10250;50.756;6.172;2023-07-30T12:29:33;19.30;99.90
20182;DHT22;10250;50.756;6.172;2023-07-30T12:31:34;19.20;99.90
20182;DHT22;10250;50.756;6.172;2023-07-30T12:33:34;19.20;99.90
20182;DHT22;10250;50.756;6.172;2023-07-30T12:35:35;19.10;99.90
20182;DHT22;10250;50.756;6.172;2023-07-30T12:37:35;19.20;99.90
20182;DHT22;10250;50.756;6.172;2023-07-30T12:39:37;19.00;99.90
20182;DHT22;10250;50.756;6.172;2023-07-30T12:41:37;19.10;99.90
20182;DHT22;10250;50.756;6.172;2023-07-30T12:43:38;19.00;99.90
20182;DHT22;10250;50.756;6.172;2023-07-30T12:45:38;19.10;99.90
20182;DHT22;10250;50.756;6.172;2023-07-30T12:47:40;19.10;99.90
20182;DHT22;10250;50.756;6.172;2023-07-30T12:49:41;19.20;99.90
20182;DHT22;10250;50.756;6.172;2023-07-30T12:51:42;19.30;99.90